Time;durP1;ratioP1;P1;durP2;ratioP2;P2;SDS_P1;SDS_P2;PMS_P1;PMS_P2;Temp;Humidity;BMP_temperature;BMP_pressure;BME280_temperature;BME280_humidity;BME280_pressure;Samples;Min_cycle;Max_cycle;Signal;HPM_P1;HPM_P2
2022/06/18 00:00:58;;;;;;;5.20;2.40;;;;;;;;;;5024228;28;93491;-62
2022/06/18 00:03:25;;;;;;;3.42;2.20;;;;;;;;;;5027402;28;92435;-62
2022/06/18 00:05:54;;;;;;;3.40;2.60;;;;;;;;;;5024913;28;94281;-62
2022/06/18 00:08:24;;;;;;;3.20;2.30;;;;;;;;;;5017039;28;94485;-61
2022/06/18 00:13:39;;;;;;;3.92;2.00;;;;;;;;;;5011512;28;92519;-61
2022/06/18 00:13:42;;;;;;;2.85;1.83;;;;;;;;;;5020819;28;94944;-62
2022/06/18 00:16:10;;;;;;;3.67;2.63;;;;;;;;;;5014818;28;92820;-63
2022/06/18 00:18:36;;;;;;;3.97;2.58;;;;;;;;;;5001743;28;92424;-63
2022/06/18 00:21:04;;;;;;;2.85;2.08;;;;;;;;;;5010885;28;93233;-62
2022/06/18 00:23:30;;;;;;;2.33;2.13;;;;;;;;;;5019721;28;92463;-63
2022/06/18 00:25:56;;;;;;;5.88;2.17;;;;;;;;;;5031476;28;94039;-64
2022/06/18 00:28:28;;;;;;;4.22;2.65;;;;;;;;;;5029841;27;93363;-63
2022/06/18 00:30:55;;;;;;;4.25;2.47;;;;;;;;;;5010196;27;91956;-63
2022/06/18 00:33:22;;;;;;;4.18;2.05;;;;;;;;;;5011277;28;93525;-64
2022/06/18 00:35:49;;;;;;;4.65;2.40;;;;;;;;;;5015561;28;94448;-64
2022/06/18 00:38:34;;;;;;;3.38;2.42;;;;;;;;;;5011182;28;94739;-64
2022/06/18 00:41:01;;;;;;;3.10;2.65;;;;;;;;;;5019789;28;93357;-64
2022/06/18 00:43:30;;;;;;;5.60;2.50;;;;;;;;;;5015614;27;92794;-63
2022/06/18 00:45:59;;;;;;;4.00;2.63;;;;;;;;;;5013864;28;93127;-64
2022/06/18 00:48:43;;;;;;;4.47;2.30;;;;;;;;;;5013786;28;93497;-62
2022/06/18 00:51:13;;;;;;;7.00;2.70;;;;;;;;;;5005231;28;93191;-62
2022/06/18 00:53:44;;;;;;;3.08;2.47;;;;;;;;;;5028779;28;92692;-63
2022/06/18 00:56:37;;;;;;;5.20;2.47;;;;;;;;;;5005733;28;92454;-63
2022/06/18 00:59:10;;;;;;;2.95;2.28;;;;;;;;;;5017186;28;92436;-63
2022/06/18 01:01:38;;;;;;;4.30;2.60;;;;;;;;;;5012754;28;94285;-63
2022/06/18 01:04:21;;;;;;;5.55;2.25;;;;;;;;;;5023301;27;95175;-64
2022/06/18 01:06:48;;;;;;;5.63;2.40;;;;;;;;;;5001392;28;95863;-63
2022/06/18 01:09:17;;;;;;;3.55;2.42;;;;;;;;;;5004136;28;94293;-63
2022/06/18 01:11:45;;;;;;;3.80;2.58;;;;;;;;;;5000962;28;92411;-63
2022/06/18 01:14:13;;;;;;;5.15;2.67;;;;;;;;;;5031716;27;93197;-63
2022/06/18 01:16:40;;;;;;;3.88;2.60;;;;;;;;;;5021821;28;93458;-63
2022/06/18 01:19:09;;;;;;;3.38;2.67;;;;;;;;;;5029533;27;92316;-63
2022/06/18 01:21:40;;;;;;;4.63;2.55;;;;;;;;;;5019310;28;93218;-64
2022/06/18 01:24:13;;;;;;;5.78;2.85;;;;;;;;;;5025823;28;92480;-64
2022/06/18 01:26:40;;;;;;;3.92;2.50;;;;;;;;;;5032813;27;93269;-63
2022/06/18 01:29:06;;;;;;;3.97;2.70;;;;;;;;;;5033815;27;96215;-64
2022/06/18 01:31:32;;;;;;;3.38;2.75;;;;;;;;;;5014134;27;92486;-64
2022/06/18 01:33:59;;;;;;;5.20;2.30;;;;;;;;;;5025187;28;93139;-64
2022/06/18 01:36:27;;;;;;;4.65;2.63;;;;;;;;;;5023633;28;93250;-63
2022/06/18 01:38:54;;;;;;;5.90;2.72;;;;;;;;;;5012773;28;92467;-62
2022/06/18 01:44:12;;;;;;;3.95;2.70;;;;;;;;;;5013433;27;93350;-63
2022/06/18 01:46:42;;;;;;;2.80;2.38;;;;;;;;;;5017091;28;94085;-62
2022/06/18 01:49:08;;;;;;;;;;;;;;;;;;5028850;27;93697;-63
2022/06/18 01:51:36;;;;;;;2.63;2.30;;;;;;;;;;5015752;28;118600;-62
2022/06/18 01:54:08;;;;;;;3.40;2.88;;;;;;;;;;5026261;28;94903;-63
2022/06/18 01:56:37;;;;;;;5.18;2.45;;;;;;;;;;5032033;28;94341;-62
2022/06/18 01:59:29;;;;;;;3.20;2.35;;;;;;;;;;5033509;27;92521;-62
2022/06/18 02:01:56;;;;;;;3.53;2.55;;;;;;;;;;5029056;27;93483;-63
2022/06/18 02:04:23;;;;;;;3.95;2.65;;;;;;;;;;5017562;27;93620;-62
2022/06/18 02:06:50;;;;;;;4.10;2.60;;;;;;;;;;5038295;28;92444;-63
2022/06/18 02:09:28;;;;;;;2.50;2.30;;;;;;;;;;5017045;27;93413;-62
2022/06/18 02:11:56;;;;;;;4.25;2.92;;;;;;;;;;5011578;28;92283;-62
2022/06/18 02:14:23;;;;;;;4.00;2.70;;;;;;;;;;5017692;28;92711;-62
2022/06/18 02:16:51;;;;;;;2.60;2.40;;;;;;;;;;5010305;28;93506;-62
2022/06/18 02:19:18;;;;;;;4.38;2.60;;;;;;;;;;5018487;28;95867;-65
2022/06/18 02:21:46;;;;;;;5.35;2.75;;;;;;;;;;5033969;27;96620;-64
2022/06/18 02:24:12;;;;;;;4.55;2.70;;;;;;;;;;5030149;27;93411;-64
2022/06/18 02:26:41;;;;;;;6.32;2.75;;;;;;;;;;5037784;27;92385;-64
2022/06/18 02:29:16;;;;;;;7.63;2.70;;;;;;;;;;5023580;27;93471;-64
2022/06/18 02:31:45;;;;;;;6.85;2.85;;;;;;;;;;5023207;27;92751;-64
2022/06/18 02:34:14;;;;;;;6.35;2.47;;;;;;;;;;5027494;27;93227;-64
2022/06/18 02:36:41;;;;;;;9.85;3.38;;;;;;;;;;5031701;27;92607;-64
2022/06/18 02:39:07;;;;;;;3.55;2.45;;;;;;;;;;5015633;27;93971;-64
2022/06/18 02:41:38;;;;;;;5.25;2.75;;;;;;;;;;5015205;28;93214;-64
2022/06/18 02:44:04;;;;;;;4.18;2.65;;;;;;;;;;5018341;28;95872;-64
2022/06/18 02:46:31;;;;;;;4.30;2.78;;;;;;;;;;5017457;28;94098;-64
2022/06/18 02:49:00;;;;;;;5.63;2.70;;;;;;;;;;5016175;28;92544;-63
2022/06/18 02:51:27;;;;;;;4.43;2.75;;;;;;;;;;5013243;28;92527;-60
2022/06/18 02:53:53;;;;;;;4.55;2.60;;;;;;;;;;5016108;28;93057;-61
2022/06/18 02:56:20;;;;;;;4.05;2.85;;;;;;;;;;5026869;27;93563;-61
2022/06/18 02:58:47;;;;;;;2.95;2.60;;;;;;;;;;5008255;28;92504;-61
2022/06/18 03:01:16;;;;;;;2.90;2.42;;;;;;;;;;5015099;28;93151;-61
2022/06/18 03:03:44;;;;;;;3.28;2.70;;;;;;;;;;5014500;28;94442;-61
2022/06/18 03:06:11;;;;;;;3.38;2.47;;;;;;;;;;5026821;28;92679;-61
2022/06/18 03:08:37;;;;;;;3.90;3.00;;;;;;;;;;5022991;27;95580;-61
2022/06/18 03:13:49;;;;;;;4.03;2.55;;;;;;;;;;5034584;28;94234;-60
2022/06/18 03:16:18;;;;;;;6.85;2.78;;;;;;;;;;5020126;27;94113;-61
2022/06/18 03:18:45;;;;;;;4.93;3.05;;;;;;;;;;5031763;27;92399;-60
2022/06/18 03:21:20;;;;;;;4.78;2.65;;;;;;;;;;5015273;28;92934;-61
2022/06/18 03:23:47;;;;;;;3.45;2.55;;;;;;;;;;5017323;28;93892;-64
2022/06/18 03:26:14;;;;;;;5.88;2.88;;;;;;;;;;5027648;28;91810;-64
2022/06/18 03:28:40;;;;;;;2.97;2.53;;;;;;;;;;5006225;27;93746;-64
2022/06/18 03:31:06;;;;;;;4.10;2.67;;;;;;;;;;5014772;28;93772;-64
2022/06/18 03:33:33;;;;;;;5.18;2.70;;;;;;;;;;5021561;28;94798;-65
2022/06/18 03:36:00;;;;;;;6.53;3.17;;;;;;;;;;5026412;27;93731;-61
2022/06/18 03:38:26;;;;;;;4.13;2.67;;;;;;;;;;5029008;27;92436;-62
2022/06/18 03:40:52;;;;;;;6.75;3.25;;;;;;;;;;5011728;28;93832;-62
2022/06/18 03:43:20;;;;;;;5.35;2.92;;;;;;;;;;5024286;28;94473;-61
2022/06/18 03:45:48;;;;;;;3.35;2.80;;;;;;;;;;5022789;27;92449;-61
2022/06/18 03:48:38;;;;;;;6.05;2.85;;;;;;;;;;5023951;28;93450;-62
2022/06/18 03:51:04;;;;;;;3.50;2.67;;;;;;;;;;5008757;28;93897;-64
2022/06/18 03:53:30;;;;;;;4.30;2.60;;;;;;;;;;5024771;28;92934;-64
2022/06/18 03:55:57;;;;;;;7.30;2.95;;;;;;;;;;5024197;27;94446;-63
2022/06/18 03:58:23;;;;;;;4.65;2.78;;;;;;;;;;5031923;27;94845;-65
2022/06/18 04:00:50;;;;;;;5.35;2.97;;;;;;;;;;5029612;27;95640;-64
2022/06/18 04:03:16;;;;;;;3.78;2.72;;;;;;;;;;5030549;27;93574;-61
2022/06/18 04:05:43;;;;;;;5.38;3.03;;;;;;;;;;5020583;28;92400;-60
2022/06/18 04:08:13;;;;;;;5.28;3.13;;;;;;;;;;5031485;27;92878;-63
2022/06/18 04:10:39;;;;;;;20.25;4.28;;;;;;;;;;5018952;27;93637;-61
2022/06/18 04:13:05;;;;;;;12.77;4.00;;;;;;;;;;5034496;27;92358;-64
2022/06/18 04:15:32;;;;;;;12.02;3.75;;;;;;;;;;5031009;27;93537;-63
2022/06/18 04:17:58;;;;;;;13.20;3.33;;;;;;;;;;5016958;28;93020;-63
2022/06/18 04:20:26;;;;;;;10.77;3.50;;;;;;;;;;5022192;28;93013;-63
2022/06/18 04:22:54;;;;;;;10.02;3.30;;;;;;;;;;5018507;27;95871;-63
2022/06/18 04:25:20;;;;;;;12.30;4.47;;;;;;;;;;5025793;28;94130;-63
2022/06/18 04:27:47;;;;;;;7.78;3.17;;;;;;;;;;5031707;27;93268;-64
2022/06/18 04:30:14;;;;;;;6.03;3.03;;;;;;;;;;5016429;27;92456;-63
2022/06/18 04:32:40;;;;;;;5.90;3.70;;;;;;;;;;5013800;28;92673;-63
2022/06/18 04:35:08;;;;;;;6.43;3.45;;;;;;;;;;5011775;28;93318;-63
2022/06/18 04:37:34;;;;;;;7.90;3.50;;;;;;;;;;5031514;27;93510;-63
2022/06/18 04:40:00;;;;;;;9.45;3.80;;;;;;;;;;5019898;28;92992;-63
2022/06/18 04:42:27;;;;;;;9.75;3.35;;;;;;;;;;5012987;28;93450;-63
2022/06/18 04:44:53;;;;;;;6.03;3.20;;;;;;;;;;5004386;28;92437;-63
2022/06/18 04:47:19;;;;;;;5.30;2.85;;;;;;;;;;5023199;28;96273;-63
2022/06/18 04:49:47;;;;;;;13.10;3.72;;;;;;;;;;5023940;28;93410;-63
2022/06/18 04:52:13;;;;;;;8.70;3.67;;;;;;;;;;5036249;27;92574;-63
2022/06/18 04:54:39;;;;;;;8.05;3.42;;;;;;;;;;5035856;27;92942;-63
2022/06/18 04:57:06;;;;;;;8.65;3.53;;;;;;;;;;5013286;27;93727;-63
2022/06/18 04:59:32;;;;;;;6.68;3.40;;;;;;;;;;5013840;28;92469;-63
2022/06/18 05:02:13;;;;;;;6.13;3.40;;;;;;;;;;5019780;28;94399;-63
2022/06/18 05:04:39;;;;;;;6.20;3.47;;;;;;;;;;5029740;28;91651;-63
2022/06/18 05:07:06;;;;;;;6.03;3.20;;;;;;;;;;5019815;27;92756;-62
2022/06/18 05:09:32;;;;;;;7.63;3.70;;;;;;;;;;5013909;28;93745;-62
2022/06/18 05:11:58;;;;;;;9.15;3.70;;;;;;;;;;5015029;28;94892;-62
2022/06/18 05:14:25;;;;;;;9.43;3.20;;;;;;;;;;5017409;28;96540;-63
2022/06/18 05:16:51;;;;;;;8.32;3.35;;;;;;;;;;5016128;28;93427;-63
2022/06/18 05:19:21;;;;;;;7.47;3.20;;;;;;;;;;5029258;28;92531;-63
2022/06/18 05:21:48;;;;;;;5.22;3.30;;;;;;;;;;5039355;27;92965;-63
2022/06/18 05:24:14;;;;;;;5.45;3.08;;;;;;;;;;5032416;27;92467;-63
2022/06/18 05:26:43;;;;;;;6.15;2.83;;;;;;;;;;5021441;28;93129;-63
2022/06/18 05:29:10;;;;;;;8.85;3.50;;;;;;;;;;5023423;27;92413;-63
2022/06/18 05:31:36;;;;;;;6.80;3.10;;;;;;;;;;5019323;28;92492;-63
2022/06/18 05:34:03;;;;;;;8.73;3.20;;;;;;;;;;5036362;27;93520;-63
2022/06/18 05:36:30;;;;;;;8.85;3.28;;;;;;;;;;5027945;27;96195;-62
2022/06/18 05:38:57;;;;;;;6.60;3.67;;;;;;;;;;5022283;27;92469;-63
2022/06/18 05:41:23;;;;;;;6.53;3.30;;;;;;;;;;5016659;28;93225;-61
2022/06/18 05:43:50;;;;;;;8.70;3.72;;;;;;;;;;5021448;28;94418;-61
2022/06/18 05:46:16;;;;;;;6.95;3.30;;;;;;;;;;5017862;27;93237;-61
2022/06/18 05:48:43;;;;;;;5.07;3.00;;;;;;;;;;5037180;27;93551;-61
2022/06/18 05:51:09;;;;;;;7.10;3.10;;;;;;;;;;5023967;27;94333;-61
2022/06/18 05:53:36;;;;;;;5.40;3.25;;;;;;;;;;5016796;28;93214;-61
2022/06/18 05:56:02;;;;;;;5.15;3.30;;;;;;;;;;5013000;28;93296;-61
2022/06/18 05:58:28;;;;;;;8.50;2.88;;;;;;;;;;5017277;28;92800;-61
2022/06/18 06:00:56;;;;;;;8.38;3.33;;;;;;;;;;5015184;28;94720;-61
2022/06/18 06:03:23;;;;;;;6.38;3.38;;;;;;;;;;5011173;28;93448;-60
2022/06/18 06:05:49;;;;;;;8.38;3.15;;;;;;;;;;5012369;28;92809;-61
2022/06/18 06:08:15;;;;;;;6.57;3.10;;;;;;;;;;5012965;28;93742;-60
2022/06/18 06:13:27;;;;;;;5.82;3.40;;;;;;;;;;5016182;28;93558;-60
2022/06/18 06:15:54;;;;;;;8.18;3.97;;;;;;;;;;5016658;28;94812;-60
2022/06/18 06:18:26;;;;;;;8.00;3.30;;;;;;;;;;5029174;28;91932;-61
2022/06/18 06:20:53;;;;;;;9.05;3.50;;;;;;;;;;5036169;27;92345;-61
2022/06/18 06:23:19;;;;;;;8.55;3.53;;;;;;;;;;5036347;27;94487;-61
2022/06/18 06:25:46;;;;;;;9.07;3.35;;;;;;;;;;5027853;27;94923;-61
2022/06/18 06:28:14;;;;;;;8.07;3.30;;;;;;;;;;5020956;27;93927;-61
2022/06/18 06:30:40;;;;;;;8.05;3.40;;;;;;;;;;5014437;28;92412;-61
2022/06/18 06:33:07;;;;;;;6.53;3.60;;;;;;;;;;5022271;28;94344;-62
2022/06/18 06:35:33;;;;;;;6.13;3.00;;;;;;;;;;5014509;28;93780;-61
2022/06/18 06:38:01;;;;;;;7.13;3.35;;;;;;;;;;5036291;28;92445;-61
2022/06/18 06:40:27;;;;;;;8.60;3.75;;;;;;;;;;4997991;27;93233;-61
2022/06/18 06:42:56;;;;;;;5.30;3.05;;;;;;;;;;4996366;28;92858;-61
2022/06/18 06:45:25;;;;;;;9.05;3.20;;;;;;;;;;5002918;28;92695;-61
2022/06/18 06:47:52;;;;;;;12.48;3.33;;;;;;;;;;5018513;28;93641;-62
2022/06/18 06:50:19;;;;;;;5.53;3.20;;;;;;;;;;5017184;27;96620;-62
2022/06/18 06:52:48;;;;;;;14.75;3.80;;;;;;;;;;5015509;28;95607;-62
2022/06/18 06:58:17;;;;;;;8.75;3.53;;;;;;;;;;5016668;28;92529;-61
2022/06/18 07:00:47;;;;;;;8.45;3.50;;;;;;;;;;5006435;28;93197;-62
2022/06/18 07:03:15;;;;;;;11.70;3.60;;;;;;;;;;5005765;28;93238;-61
2022/06/18 07:05:41;;;;;;;5.95;3.28;;;;;;;;;;5015394;28;92325;-61
2022/06/18 07:08:08;;;;;;;6.78;3.33;;;;;;;;;;5010989;28;92997;-61
2022/06/18 07:10:34;;;;;;;6.88;3.42;;;;;;;;;;5034349;27;93421;-62
2022/06/18 07:13:01;;;;;;;7.28;3.45;;;;;;;;;;5035563;27;93364;-62
2022/06/18 07:15:27;;;;;;;3.78;2.75;;;;;;;;;;5028890;27;95794;-61
2022/06/18 07:17:53;;;;;;;6.57;3.50;;;;;;;;;;5014522;28;92883;-62
2022/06/18 07:20:20;;;;;;;7.85;3.30;;;;;;;;;;5029666;28;93147;-62
2022/06/18 07:22:46;;;;;;;7.28;3.05;;;;;;;;;;5015174;28;93717;-61
2022/06/18 07:25:13;;;;;;;7.13;3.35;;;;;;;;;;5014819;28;92339;-61
2022/06/18 07:27:40;;;;;;;6.35;3.17;;;;;;;;;;5013660;28;92925;-61
2022/06/18 07:30:08;;;;;;;11.88;3.65;;;;;;;;;;5020728;28;94548;-61
2022/06/18 07:32:43;;;;;;;7.22;3.15;;;;;;;;;;5016049;28;91891;-62
2022/06/18 07:35:15;;;;;;;5.78;3.05;;;;;;;;;;5034975;27;93251;-62
2022/06/18 07:37:42;;;;;;;8.40;3.40;;;;;;;;;;5021002;27;93079;-61
2022/06/18 07:40:09;;;;;;;9.50;3.25;;;;;;;;;;5011495;28;94894;-61
2022/06/18 07:42:35;;;;;;;5.93;3.28;;;;;;;;;;5015039;28;94251;-62
2022/06/18 07:45:02;;;;;;;8.40;3.40;;;;;;;;;;5030548;28;92514;-62
2022/06/18 07:47:28;;;;;;;8.75;3.97;;;;;;;;;;5007610;28;93544;-62
2022/06/18 07:49:58;;;;;;;13.18;4.10;;;;;;;;;;5022909;28;93443;-62
2022/06/18 07:52:24;;;;;;;13.90;4.50;;;;;;;;;;5032006;27;92580;-62
2022/06/18 07:54:50;;;;;;;10.90;4.30;;;;;;;;;;5037454;27;93032;-62
2022/06/18 07:57:22;;;;;;;17.77;4.82;;;;;;;;;;5018053;27;91663;-62
2022/06/18 07:59:48;;;;;;;13.55;4.90;;;;;;;;;;5011667;28;94414;-62
2022/06/18 08:02:16;;;;;;;15.55;4.82;;;;;;;;;;5022220;28;94628;-62
2022/06/18 08:04:42;;;;;;;17.55;4.82;;;;;;;;;;5012205;28;94767;-62
2022/06/18 08:07:08;;;;;;;14.25;4.45;;;;;;;;;;5006592;28;95550;-62
2022/06/18 08:09:34;;;;;;;14.73;4.60;;;;;;;;;;5014284;28;93424;-62
2022/06/18 08:12:01;;;;;;;14.32;4.70;;;;;;;;;;5014520;28;92377;-62
2022/06/18 08:14:28;;;;;;;14.73;4.65;;;;;;;;;;5007573;28;96578;-61
2022/06/18 08:16:54;;;;;;;14.25;4.28;;;;;;;;;;5013848;28;93935;-62
2022/06/18 08:19:20;;;;;;;12.30;4.70;;;;;;;;;;5018072;28;93464;-62
2022/06/18 08:21:47;;;;;;;15.15;4.13;;;;;;;;;;5029014;27;93742;-62
2022/06/18 08:24:15;;;;;;;13.45;4.68;;;;;;;;;;5017209;27;92756;-61
2022/06/18 08:26:43;;;;;;;16.30;4.70;;;;;;;;;;5016727;28;92952;-62
2022/06/18 08:29:13;;;;;;;9.02;4.03;;;;;;;;;;4996965;28;95844;-62
2022/06/18 08:31:39;;;;;;;10.32;4.20;;;;;;;;;;4997437;28;92455;-62
2022/06/18 08:34:05;;;;;;;10.82;4.78;;;;;;;;;;5017804;28;93251;-62
2022/06/18 08:36:32;;;;;;;13.73;4.63;;;;;;;;;;5033744;27;93152;-62
2022/06/18 08:38:58;;;;;;;16.98;4.88;;;;;;;;;;5016267;28;93004;-62
2022/06/18 08:41:31;;;;;;;21.35;5.53;;;;;;;;;;5022588;27;93514;-61
2022/06/18 08:44:16;;;;;;;17.45;5.90;;;;;;;;;;5031340;27;92400;-62
2022/06/18 08:47:01;;;;;;;18.27;5.55;;;;;;;;;;5004340;28;94264;-62
2022/06/18 08:49:53;;;;;;;16.95;5.32;;;;;;;;;;4997514;28;93636;-62
2022/06/18 08:52:38;;;;;;;19.33;5.38;;;;;;;;;;5015240;28;92462;-62
2022/06/18 08:55:16;;;;;;;14.32;4.93;;;;;;;;;;4986156;28;95114;-62
2022/06/18 08:57:42;;;;;;;14.65;4.38;;;;;;;;;;4987540;28;93517;-62
2022/06/18 09:00:27;;;;;;;16.52;4.95;;;;;;;;;;5017003;28;92432;-62
2022/06/18 09:02:53;;;;;;;19.00;4.93;;;;;;;;;;5010573;28;94132;-62
2022/06/18 09:05:42;;;;;;;13.90;4.47;;;;;;;;;;4999834;28;93128;-62
2022/06/18 09:08:32;;;;;;;17.90;4.67;;;;;;;;;;4991460;28;94399;-62
2022/06/18 09:11:18;;;;;;;12.73;4.63;;;;;;;;;;5003231;28;93301;-62
2022/06/18 09:13:48;;;;;;;14.45;4.20;;;;;;;;;;5004541;28;92942;-61
2022/06/18 09:16:17;;;;;;;21.98;4.95;;;;;;;;;;4992321;28;92659;-62
2022/06/18 09:18:47;;;;;;;11.18;4.18;;;;;;;;;;4985727;28;94443;-61
2022/06/18 09:21:15;;;;;;;16.13;4.20;;;;;;;;;;4994087;28;95104;-61
2022/06/18 09:24:00;;;;;;;11.75;3.95;;;;;;;;;;5006576;28;95601;-61
2022/06/18 09:26:29;;;;;;;26.35;4.00;;;;;;;;;;4993992;28;92815;-62
2022/06/18 09:29:01;;;;;;;11.15;4.20;;;;;;;;;;5000846;28;93028;-62
2022/06/18 09:31:50;;;;;;;12.30;3.85;;;;;;;;;;5023162;27;93570;-62
2022/06/18 09:34:20;;;;;;;9.98;3.75;;;;;;;;;;5010439;28;92500;-62
2022/06/18 09:36:48;;;;;;;13.15;4.22;;;;;;;;;;5016761;28;93237;-62
2022/06/18 09:39:17;;;;;;;6.63;3.45;;;;;;;;;;5017513;28;93693;-61
2022/06/18 09:41:49;;;;;;;9.45;3.83;;;;;;;;;;5016762;28;92480;-62
2022/06/18 09:44:18;;;;;;;7.53;3.33;;;;;;;;;;5015138;28;94062;-62
2022/06/18 09:46:55;;;;;;;9.57;3.87;;;;;;;;;;5016264;28;95929;-62
2022/06/18 09:49:21;;;;;;;7.15;3.63;;;;;;;;;;5016677;28;95365;-62
2022/06/18 09:52:06;;;;;;;10.65;3.00;;;;;;;;;;5016596;28;93446;-62
2022/06/18 09:54:37;;;;;;;8.05;3.17;;;;;;;;;;5016880;28;92384;-61
2022/06/18 09:57:04;;;;;;;6.10;2.63;;;;;;;;;;5016400;28;93352;-62
2022/06/18 09:59:32;;;;;;;6.53;3.35;;;;;;;;;;5016690;28;93866;-61
2022/06/18 10:01:59;;;;;;;7.45;3.10;;;;;;;;;;5016010;28;92736;-62
2022/06/18 10:07:21;;;;;;;6.55;3.40;;;;;;;;;;5016102;28;93471;-62
2022/06/18 10:09:54;;;;;;;5.82;3.35;;;;;;;;;;5019304;28;92417;-61
2022/06/18 10:12:37;;;;;;;6.68;3.30;;;;;;;;;;5014656;28;96899;-62
2022/06/18 10:15:05;;;;;;;6.78;3.20;;;;;;;;;;5017121;28;92824;-62
2022/06/18 10:17:50;;;;;;;5.53;2.88;;;;;;;;;;5012723;28;93125;-62
2022/06/18 10:20:20;;;;;;;6.15;3.28;;;;;;;;;;5011387;28;92557;-62
2022/06/18 10:22:52;;;;;;;7.30;2.87;;;;;;;;;;4996237;28;92447;-62
2022/06/18 10:25:27;;;;;;;7.65;3.25;;;;;;;;;;4996627;28;94218;-62
2022/06/18 10:27:54;;;;;;;5.28;2.90;;;;;;;;;;4996272;28;94072;-62
2022/06/18 10:30:24;;;;;;;5.65;2.88;;;;;;;;;;4999589;28;91762;-62
2022/06/18 10:33:06;;;;;;;4.22;2.50;;;;;;;;;;5018975;28;92539;-62
2022/06/18 10:35:51;;;;;;;6.80;2.97;;;;;;;;;;5011802;28;92393;-62
2022/06/18 10:38:20;;;;;;;5.93;2.67;;;;;;;;;;5015400;28;95273;-62
2022/06/18 10:41:09;;;;;;;3.42;1.95;;;;;;;;;;5006913;28;93254;-62
2022/06/18 10:43:38;;;;;;;8.73;2.70;;;;;;;;;;4985253;28;92809;-62
2022/06/18 10:46:08;;;;;;;6.13;2.73;;;;;;;;;;4989531;28;93405;-62
2022/06/18 10:48:35;;;;;;;5.93;2.97;;;;;;;;;;4999420;28;94527;-61
2022/06/18 10:51:02;;;;;;;5.07;2.75;;;;;;;;;;4999605;28;92578;-62
2022/06/18 10:53:30;;;;;;;6.40;2.80;;;;;;;;;;4995818;28;93033;-62
2022/06/18 10:56:16;;;;;;;8.35;2.55;;;;;;;;;;4992794;28;92997;-62
2022/06/18 10:58:46;;;;;;;4.95;2.70;;;;;;;;;;4984486;28;92464;-61
2022/06/18 11:01:13;;;;;;;6.72;2.25;;;;;;;;;;4974890;28;93900;-62
2022/06/18 11:03:39;;;;;;;7.13;2.60;;;;;;;;;;4992079;28;96258;-62
2022/06/18 11:06:11;;;;;;;3.63;2.55;;;;;;;;;;5012311;28;95569;-62
2022/06/18 11:08:38;;;;;;;5.15;2.45;;;;;;;;;;4998305;28;94736;-62
2022/06/18 11:11:05;;;;;;;4.95;2.47;;;;;;;;;;5001500;28;93914;-62
2022/06/18 11:13:35;;;;;;;8.55;3.45;;;;;;;;;;4984946;28;93277;-62
2022/06/18 11:16:34;;;;;;;5.13;2.53;;;;;;;;;;5006150;28;93782;-61
2022/06/18 11:19:02;;;;;;;4.55;2.25;;;;;;;;;;4981690;28;93498;-61
2022/06/18 11:21:36;;;;;;;5.78;2.60;;;;;;;;;;5022661;28;92776;-62
2022/06/18 11:24:05;;;;;;;4.63;2.58;;;;;;;;;;5014171;28;92346;-61
2022/06/18 11:26:37;;;;;;;4.47;2.50;;;;;;;;;;5029855;28;94123;-61
2022/06/18 11:29:10;;;;;;;5.47;2.35;;;;;;;;;;5033849;27;96987;-61
2022/06/18 11:31:43;;;;;;;3.47;2.13;;;;;;;;;;5019586;28;93191;-61
2022/06/18 11:34:18;;;;;;;5.53;2.33;;;;;;;;;;5015229;28;93154;-61
2022/06/18 11:36:46;;;;;;;5.22;2.25;;;;;;;;;;5027109;28;93677;-62
2022/06/18 11:39:22;;;;;;;3.30;2.20;;;;;;;;;;5018033;28;92432;-61
2022/06/18 11:41:50;;;;;;;7.50;2.22;;;;;;;;;;5010780;28;93477;-65
2022/06/18 11:44:20;;;;;;;5.68;2.30;;;;;;;;;;5035071;27;92354;-65
2022/06/18 11:46:57;;;;;;;4.72;2.00;;;;;;;;;;5012091;28;93917;-66
2022/06/18 11:49:28;;;;;;;5.65;2.58;;;;;;;;;;5015356;28;93407;-65
2022/06/18 11:52:07;;;;;;;7.38;2.22;;;;;;;;;;5012916;28;92499;-65
2022/06/18 11:54:37;;;;;;;3.22;2.33;;;;;;;;;;5012135;28;94757;-65
2022/06/18 11:57:11;;;;;;;5.73;2.30;;;;;;;;;;5031421;27;93356;-65
2022/06/18 11:59:55;;;;;;;8.02;2.10;;;;;;;;;;5034800;27;92512;-65
2022/06/18 12:02:24;;;;;;;6.22;2.15;;;;;;;;;;5019249;28;94352;-65
2022/06/18 12:04:54;;;;;;;7.30;2.45;;;;;;;;;;5024777;28;92459;-65
2022/06/18 12:07:24;;;;;;;7.15;2.40;;;;;;;;;;5022565;27;93135;-65
2022/06/18 12:09:51;;;;;;;3.60;2.40;;;;;;;;;;5014910;28;92407;-65
2022/06/18 12:12:17;;;;;;;4.68;2.00;;;;;;;;;;5000137;28;91787;-65
2022/06/18 12:14:50;;;;;;;4.05;2.42;;;;;;;;;;5031959;28;92327;-65
2022/06/18 12:17:54;;;;;;;3.15;2.10;;;;;;;;;;5014982;27;93443;-65
2022/06/18 12:20:36;;;;;;;2.63;1.98;;;;;;;;;;4979963;28;96300;-65
2022/06/18 12:23:12;;;;;;;7.32;2.72;;;;;;;;;;4991696;28;95537;-65
2022/06/18 12:25:57;;;;;;;7.70;2.50;;;;;;;;;;4977346;28;93718;-65
2022/06/18 12:28:24;;;;;;;6.43;2.28;;;;;;;;;;4986059;28;94743;-65
2022/06/18 12:30:54;;;;;;;4.78;2.17;;;;;;;;;;4973863;28;93915;-65
2022/06/18 12:33:20;;;;;;;;;;;;;;;;;;4982237;28;92575;-65
2022/06/18 12:35:49;;;;;;;6.97;2.75;;;;;;;;;;4991852;28;123678;-65
2022/06/18 12:38:18;;;;;;;5.83;2.47;;;;;;;;;;4972844;28;92779;-65
2022/06/18 12:40:52;;;;;;;6.88;2.30;;;;;;;;;;4976711;28;92549;-66
2022/06/18 12:43:24;;;;;;;7.00;2.40;;;;;;;;;;4972244;28;93200;-65
2022/06/18 12:45:59;;;;;;;8.68;2.40;;;;;;;;;;4989398;28;97099;-65
2022/06/18 12:48:30;;;;;;;4.10;2.33;;;;;;;;;;4991496;28;92578;-65
2022/06/18 12:50:56;;;;;;;8.68;2.60;;;;;;;;;;4998802;28;94386;-65
2022/06/18 12:53:25;;;;;;;8.60;2.15;;;;;;;;;;5013875;28;92455;-65
2022/06/18 12:55:51;;;;;;;7.93;2.60;;;;;;;;;;5014215;28;93241;-65
2022/06/18 12:58:23;;;;;;;10.43;2.85;;;;;;;;;;5012643;28;93482;-65
2022/06/18 13:00:51;;;;;;;6.05;2.60;;;;;;;;;;5009986;28;92563;-65
2022/06/18 13:03:23;;;;;;;8.98;2.53;;;;;;;;;;5020290;28;93266;-65
2022/06/18 13:05:51;;;;;;;7.78;2.42;;;;;;;;;;5035012;27;93535;-66
2022/06/18 13:08:36;;;;;;;6.50;2.33;;;;;;;;;;5031409;27;92467;-66
2022/06/18 13:11:03;;;;;;;6.90;2.40;;;;;;;;;;5027611;27;94898;-65
2022/06/18 13:13:36;;;;;;;4.57;2.00;;;;;;;;;;5018361;28;92562;-66
2022/06/18 13:16:06;;;;;;;5.60;1.90;;;;;;;;;;5028014;27;93105;-66
2022/06/18 13:18:37;;;;;;;4.72;2.13;;;;;;;;;;5027918;28;94200;-65
2022/06/18 13:21:05;;;;;;;4.93;1.98;;;;;;;;;;5032838;27;93125;-63
2022/06/18 13:29:04;;;;;;;4.50;1.90;;;;;;;;;;5019143;28;93303;-63
2022/06/18 13:31:35;;;;;;;4.75;2.00;;;;;;;;;;5020094;28;93310;-63
2022/06/18 13:34:28;;;;;;;5.03;2.15;;;;;;;;;;5015575;28;92474;-63
2022/06/18 13:37:02;;;;;;;4.82;1.63;;;;;;;;;;5013376;28;94869;-63
2022/06/18 13:39:33;;;;;;;3.55;2.13;;;;;;;;;;5015702;27;93696;-63
2022/06/18 13:42:07;;;;;;;4.88;1.70;;;;;;;;;;5007057;28;92803;-64
2022/06/18 13:44:57;;;;;;;5.85;1.88;;;;;;;;;;5014097;28;93225;-64
2022/06/18 13:47:27;;;;;;;3.73;2.00;;;;;;;;;;5010126;28;93039;-63
2022/06/18 13:50:00;;;;;;;5.38;1.80;;;;;;;;;;5011568;28;92574;-64
2022/06/18 13:52:35;;;;;;;9.85;2.28;;;;;;;;;;5013077;28;93394;-63
2022/06/18 13:55:02;;;;;;;5.50;1.88;;;;;;;;;;5025631;28;92512;-63
2022/06/18 13:57:36;;;;;;;7.80;1.70;;;;;;;;;;5035028;27;93498;-64
2022/06/18 14:00:04;;;;;;;3.78;1.25;;;;;;;;;;5012738;27;93432;-63
2022/06/18 14:02:33;;;;;;;7.32;1.67;;;;;;;;;;5019192;28;95319;-63
2022/06/18 14:05:13;;;;;;;3.58;1.42;;;;;;;;;;5036194;27;95523;-64
2022/06/18 14:07:41;;;;;;;7.05;1.95;;;;;;;;;;5032150;27;93270;-64
2022/06/18 14:10:13;;;;;;;3.38;1.58;;;;;;;;;;5034058;27;92798;-63
2022/06/18 14:12:40;;;;;;;10.07;1.52;;;;;;;;;;5013660;28;93263;-64
2022/06/18 14:15:12;;;;;;;10.07;2.15;;;;;;;;;;5031040;27;94484;-63
2022/06/18 14:17:41;;;;;;;7.88;1.50;;;;;;;;;;5029109;28;92570;-64
2022/06/18 14:20:18;;;;;;;8.90;1.98;;;;;;;;;;5031869;27;92503;-63
2022/06/18 14:22:44;;;;;;;8.30;1.63;;;;;;;;;;5010709;28;92551;-63
2022/06/18 14:25:18;;;;;;;12.55;1.73;;;;;;;;;;5013493;28;94128;-62
2022/06/18 14:27:46;;;;;;;2.78;1.40;;;;;;;;;;5011545;28;95709;-62
2022/06/18 14:30:18;;;;;;;10.15;1.70;;;;;;;;;;5003112;28;93342;-63
2022/06/18 14:32:59;;;;;;;4.20;1.42;;;;;;;;;;5014482;28;93472;-63
2022/06/18 14:35:39;;;;;;;4.22;1.60;;;;;;;;;;5015331;28;93124;-64
2022/06/18 14:38:06;;;;;;;2.70;1.55;;;;;;;;;;5027517;28;92866;-59
2022/06/18 14:41:34;;;;;;;9.43;1.73;;;;;;;;;;5020513;27;93041;-64
2022/06/18 14:43:28;;;;;;;8.98;1.80;;;;;;;;;;5002323;27;92581;-64
2022/06/18 14:45:54;;;;;;;11.23;2.05;;;;;;;;;;5005866;28;93177;-61
2022/06/18 14:48:32;;;;;;;10.57;1.58;;;;;;;;;;5008101;28;94126;-66
2022/06/18 14:51:18;;;;;;;9.88;1.83;;;;;;;;;;5002268;28;93617;-60
2022/06/18 14:54:07;;;;;;;3.75;1.92;;;;;;;;;;5033132;28;95036;-58
2022/06/18 14:57:08;;;;;;;14.73;1.92;;;;;;;;;;5022815;28;94435;-58
2022/06/18 14:59:47;;;;;;;7.82;2.17;;;;;;;;;;4990252;28;92493;-61
2022/06/18 15:02:19;;;;;;;8.70;1.75;;;;;;;;;;4991295;28;92460;-60
2022/06/18 15:04:51;;;;;;;5.43;2.00;;;;;;;;;;4992270;28;92611;-60
2022/06/18 15:07:17;;;;;;;19.42;1.85;;;;;;;;;;4985756;28;94146;-59
2022/06/18 15:09:46;;;;;;;8.82;1.73;;;;;;;;;;4972761;28;93719;-58
2022/06/18 15:12:13;;;;;;;7.38;1.35;;;;;;;;;;4992035;28;91912;-57
2022/06/18 15:14:52;;;;;;;10.02;1.98;;;;;;;;;;4992603;28;92484;-57
2022/06/18 15:20:00;;;;;;;19.77;2.28;;;;;;;;;;4990385;28;96733;-67
2022/06/18 15:25:24;;;;;;;10.73;2.00;;;;;;;;;;4995431;28;94730;-68